Time;durP1;ratioP1;P1;durP2;ratioP2;P2;SDS_P1;SDS_P2;PMS_P1;PMS_P2;Temp;Humidity;BMP_temperature;BMP_pressure;BME280_temperature;BME280_humidity;BME280_pressure;Samples;Min_cycle;Max_cycle;Signal;HPM_P1;HPM_P2
2022/07/11 00:00:52;;;;;;;9.27;5.07;;;;;;;15.51;88.26;102355.63;5070264;28;20023;-70
2022/07/11 00:03:18;;;;;;;8.20;4.72;;;;;;;15.50;88.12;102348.66;5071258;28;20059;-70
2022/07/11 00:05:43;;;;;;;10.45;4.85;;;;;;;15.55;88.40;102356.44;5071945;28;20029;-70
2022/07/11 00:08:08;;;;;;;11.10;5.63;;;;;;;15.52;88.43;102357.34;5074768;28;20032;-71
2022/07/11 00:10:33;;;;;;;7.75;5.07;;;;;;;15.43;88.86;102345.28;5074890;28;20032;-71
2022/07/11 00:12:59;;;;;;;8.38;5.15;;;;;;;15.41;89.18;102354.09;5075056;28;20035;-71
2022/07/11 00:15:24;;;;;;;8.57;5.05;;;;;;;15.32;89.82;102352.50;5074416;28;20048;-71
2022/07/11 00:17:49;;;;;;;8.98;4.82;;;;;;;15.34;90.06;102344.59;5074402;28;20029;-70
2022/07/11 00:20:15;;;;;;;8.82;5.40;;;;;;;15.27;90.34;102350.84;5075206;28;20029;-70
2022/07/11 00:22:40;;;;;;;7.93;4.88;;;;;;;15.28;90.45;102353.44;5074241;28;20487;-71
2022/07/11 00:25:06;;;;;;;8.07;4.95;;;;;;;15.23;90.63;102350.88;5066152;28;20040;-70
2022/07/11 00:27:31;;;;;;;9.13;5.63;;;;;;;15.29;90.67;102343.81;5069450;28;20476;-70
2022/07/11 00:29:56;;;;;;;13.05;5.45;;;;;;;15.28;91.11;102342.09;5073701;28;20035;-70
2022/07/11 00:32:22;;;;;;;8.80;5.45;;;;;;;15.20;91.15;102329.97;5072561;28;20368;-71
2022/07/11 00:34:47;;;;;;;9.05;5.60;;;;;;;15.18;91.12;102337.00;5061387;28;20029;-71
2022/07/11 00:37:13;;;;;;;7.70;6.00;;;;;;;15.15;91.38;102323.06;5058544;28;20480;-70
2022/07/11 00:39:38;;;;;;;9.85;6.28;;;;;;;15.15;92.02;102333.56;5074357;28;20017;-70
2022/07/11 00:42:03;;;;;;;10.82;6.35;;;;;;;15.12;91.84;102336.25;5060566;28;20021;-70
2022/07/11 00:44:28;;;;;;;9.55;6.13;;;;;;;15.07;92.29;102336.31;5073913;28;20468;-70
2022/07/11 00:46:54;;;;;;;11.18;5.97;;;;;;;15.02;92.25;102332.91;5073867;28;20020;-70
2022/07/11 00:49:21;;;;;;;12.57;6.03;;;;;;;14.99;92.84;102336.47;5064661;28;20469;-70
2022/07/11 00:51:47;;;;;;;12.52;6.65;;;;;;;14.98;92.81;102334.75;5069134;28;20063;-71
2022/07/11 00:54:15;;;;;;;9.23;5.90;;;;;;;14.99;93.23;102333.84;5074560;28;20020;-70
2022/07/11 00:56:40;;;;;;;11.93;6.13;;;;;;;14.98;92.99;102326.88;5073820;28;20457;-70
2022/07/11 00:59:08;;;;;;;10.60;5.60;;;;;;;14.95;93.26;102336.56;5073532;28;20122;-70
2022/07/11 01:01:37;;;;;;;9.60;5.63;;;;;;;14.90;93.36;102335.75;5073886;28;20020;-70
2022/07/11 01:04:03;;;;;;;10.65;6.47;;;;;;;14.86;93.48;102336.72;5073417;28;20024;-70
2022/07/11 01:06:28;;;;;;;10.60;6.32;;;;;;;14.84;93.60;102325.38;5063812;28;20031;-70
2022/07/11 01:08:54;;;;;;;8.93;6.40;;;;;;;14.83;94.06;102324.50;5069905;28;20028;-70
2022/07/11 01:11:20;;;;;;;10.43;6.68;;;;;;;14.78;94.20;102328.09;5073529;28;20052;-70
2022/07/11 01:13:46;;;;;;;11.20;6.95;;;;;;;14.77;94.56;102326.38;5073313;28;20020;-70
2022/07/11 01:16:16;;;;;;;14.90;7.22;;;;;;;14.78;94.76;102335.97;5073909;28;20027;-70
2022/07/11 01:18:47;;;;;;;11.35;6.93;;;;;;;14.73;94.93;102326.41;5071903;28;20025;-70
2022/07/11 01:21:24;;;;;;;10.07;7.13;;;;;;;14.75;94.36;102331.66;5073954;28;20032;-70
2022/07/11 01:23:52;;;;;;;10.93;6.88;;;;;;;14.68;94.80;102330.00;5073514;28;20028;-70
2022/07/11 01:26:19;;;;;;;14.25;7.05;;;;;;;14.62;95.29;102325.75;5072967;28;20024;-70
2022/07/11 01:28:44;;;;;;;9.32;6.93;;;;;;;14.57;95.40;102327.56;5073096;28;20115;-71
2022/07/11 01:31:10;;;;;;;13.52;7.55;;;;;;;14.53;95.82;102331.16;5073764;28;20521;-70
2022/07/11 01:33:36;;;;;;;10.43;6.82;;;;;;;14.48;95.93;102319.81;5070580;28;20025;-70
2022/07/11 01:36:02;;;;;;;7.55;6.38;;;;;;;14.46;96.16;102321.59;5072564;28;20032;-70
2022/07/11 01:38:27;;;;;;;10.43;7.45;;;;;;;14.48;96.32;102322.44;5072843;28;20016;-70
2022/07/11 01:40:52;;;;;;;11.38;7.88;;;;;;;14.46;96.21;102321.59;5059594;28;20361;-70
2022/07/11 01:43:18;;;;;;;11.30;7.20;;;;;;;14.52;96.38;102327.66;5071779;28;20044;-70
2022/07/11 01:45:43;;;;;;;12.85;7.57;;;;;;;14.46;96.27;102325.09;5073139;28;20054;-70
2022/07/11 01:48:08;;;;;;;12.57;8.10;;;;;;;14.44;96.46;102320.75;5072759;28;20024;-70
2022/07/11 01:50:34;;;;;;;12.90;7.40;;;;;;;14.49;96.92;102335.53;5073211;28;20170;-70
2022/07/11 01:52:59;;;;;;;11.82;7.80;;;;;;;14.47;96.44;102337.31;5072330;28;20037;-70
2022/07/11 01:55:24;;;;;;;12.05;7.78;;;;;;;14.49;96.77;102339.94;5073483;28;20356;-70
2022/07/11 01:57:49;;;;;;;11.60;8.85;;;;;;;14.44;96.75;102336.50;5072293;28;20029;-71
2022/07/11 02:00:15;;;;;;;14.35;7.82;;;;;;;14.41;96.72;102340.03;5072599;28;20016;-70
2022/07/11 02:02:40;;;;;;;10.70;8.18;;;;;;;14.37;96.64;102334.88;5072861;28;20032;-70
2022/07/11 02:05:05;;;;;;;9.43;7.82;;;;;;;14.35;97.37;102337.50;5072523;28;20115;-70
2022/07/11 02:10:15;;;;;;;13.35;7.90;;;;;;;14.37;97.87;102337.50;5072845;28;20082;-70
2022/07/11 02:12:40;;;;;;;12.25;7.80;;;;;;;14.38;97.70;102336.59;5072995;28;20476;-70
2022/07/11 02:15:06;;;;;;;12.95;8.38;;;;;;;14.36;97.63;102338.38;5071908;28;20078;-70
2022/07/11 02:17:31;;;;;;;11.63;7.80;;;;;;;14.34;98.17;102335.78;5072980;28;20464;-70
2022/07/11 02:19:57;;;;;;;14.50;8.02;;;;;;;14.31;98.20;102332.34;5072533;28;20027;-70
2022/07/11 02:22:22;;;;;;;13.05;8.25;;;;;;;14.30;98.11;102326.22;5071877;28;20464;-70
2022/07/11 02:24:48;;;;;;;12.32;7.85;;;;;;;14.31;98.29;102324.47;5072164;28;20043;-70
2022/07/11 02:27:13;;;;;;;16.00;8.05;;;;;;;14.32;98.33;102327.03;5072809;28;20016;-70
2022/07/11 02:29:38;;;;;;;11.10;8.32;;;;;;;14.26;98.47;102327.16;5071259;28;20013;-70
2022/07/11 02:32:04;;;;;;;11.73;8.25;;;;;;;14.22;98.73;102330.69;5072535;28;20032;-70
2022/07/11 02:34:30;;;;;;;13.50;8.63;;;;;;;14.23;98.88;102322.81;5072709;28;20024;-70
2022/07/11 02:36:55;;;;;;;14.50;9.90;;;;;;;14.24;99.25;102314.06;5071081;28;20383;-70
2022/07/11 02:39:21;;;;;;;15.27;9.77;;;;;;;14.29;99.41;102327.97;5072252;28;20028;-70
2022/07/11 02:41:46;;;;;;;13.07;9.40;;;;;;;14.28;99.14;102333.25;5057855;28;20029;-70
2022/07/11 02:44:11;;;;;;;14.68;9.27;;;;;;;14.26;99.41;102333.28;5071867;28;20404;-70
2022/07/11 02:46:37;;;;;;;19.20;9.80;;;;;;;14.25;99.88;102328.03;5071829;28;20032;-70
2022/07/11 02:49:02;;;;;;;14.60;8.98;;;;;;;14.28;99.72;102326.22;5071982;28;20029;-70
2022/07/11 02:51:27;;;;;;;12.80;9.98;;;;;;;14.27;100.00;102329.75;5071435;28;20028;-70
2022/07/11 02:53:52;;;;;;;15.70;9.75;;;;;;;14.25;100.00;102330.66;5071548;28;20035;-70
2022/07/11 02:56:18;;;;;;;18.17;9.00;;;;;;;14.29;100.00;102333.22;5071264;28;20464;-70
2022/07/11 02:58:43;;;;;;;14.57;9.73;;;;;;;14.30;100.00;102334.09;5071495;28;20055;-70
2022/07/11 03:01:09;;;;;;;20.08;10.40;;;;;;;14.32;100.00;102327.03;5072308;28;20435;-70
2022/07/11 03:03:34;;;;;;;15.57;9.90;;;;;;;14.38;100.00;102331.34;5071117;28;20021;-70
2022/07/11 03:06:00;;;;;;;19.13;10.45;;;;;;;14.42;100.00;102328.66;5071859;28;20044;-70
2022/07/11 03:08:25;;;;;;;16.88;10.02;;;;;;;14.42;99.91;102323.41;5071860;28;20026;-70
2022/07/11 03:10:50;;;;;;;16.30;10.50;;;;;;;14.39;99.96;102328.72;5070606;28;20119;-70
2022/07/11 03:13:16;;;;;;;19.67;10.38;;;;;;;14.41;100.00;102324.28;5071956;28;20024;-70
2022/07/11 03:15:42;;;;;;;19.08;10.80;;;;;;;14.47;100.00;102326.81;5071716;28;20029;-70
2022/07/11 03:18:07;;;;;;;17.08;10.35;;;;;;;14.52;100.00;102334.66;5070945;28;20511;-70
2022/07/11 03:20:32;;;;;;;19.27;10.52;;;;;;;14.56;100.00;102335.47;5071533;28;20457;-70
2022/07/11 03:22:58;;;;;;;16.25;10.55;;;;;;;14.61;100.00;102339.75;5071546;28;20551;-70
2022/07/11 03:25:24;;;;;;;16.83;10.35;;;;;;;14.62;100.00;102341.50;5070923;28;20042;-70
2022/07/11 03:27:49;;;;;;;14.38;10.32;;;;;;;14.63;100.00;102345.84;5071429;28;20017;-70
2022/07/11 03:30:14;;;;;;;11.82;9.50;;;;;;;14.68;100.00;102348.38;5071795;28;20104;-70
2022/07/11 03:32:40;;;;;;;14.73;9.90;;;;;;;14.71;100.00;102338.72;5070746;28;20024;-70
2022/07/11 03:37:50;;;;;;;15.10;10.82;;;;;;;14.82;99.75;102340.28;5071050;28;20042;-70
2022/07/11 03:40:15;;;;;;;15.63;9.93;;;;;;;14.86;99.51;102334.09;5063729;28;20017;-71
2022/07/11 03:42:40;;;;;;;15.25;10.10;;;;;;;14.86;99.48;102327.06;5069036;28;20464;-70
2022/07/11 03:45:06;;;;;;;13.48;9.73;;;;;;;14.88;99.70;102338.44;5075546;28;20048;-70
2022/07/11 03:47:32;;;;;;;17.90;11.00;;;;;;;14.88;99.35;102341.06;5075196;28;20059;-70
2022/07/11 03:49:57;;;;;;;14.63;9.88;;;;;;;14.92;99.49;102336.59;5075287;28;20448;-70
2022/07/11 03:52:22;;;;;;;14.38;9.80;;;;;;;14.99;99.36;102335.59;5075666;28;20457;-70
2022/07/11 03:54:47;;;;;;;15.38;10.05;;;;;;;15.02;99.06;102343.44;5074371;28;20024;-70
2022/07/11 03:57:13;;;;;;;13.65;10.52;;;;;;;14.92;99.29;102326.97;5075606;28;20131;-70
2022/07/11 03:59:38;;;;;;;16.38;9.32;;;;;;;15.06;98.97;102341.59;5074388;28;20106;-70
2022/07/11 04:02:04;;;;;;;18.35;10.88;;;;;;;15.07;98.96;102333.69;5075060;28;20024;-70
2022/07/11 04:04:29;;;;;;;15.88;10.70;;;;;;;15.06;98.83;102331.09;5075487;28;20024;-70
2022/07/11 04:06:55;;;;;;;11.00;9.77;;;;;;;15.04;98.23;102336.41;5073836;28;20570;-70
2022/07/11 04:09:20;;;;;;;15.55;10.55;;;;;;;15.07;98.11;102341.56;5075312;28;20050;-70
2022/07/11 04:11:45;;;;;;;15.98;9.43;;;;;;;15.07;99.01;102335.44;5074747;28;20036;-70
2022/07/11 04:14:10;;;;;;;15.27;10.48;;;;;;;15.11;98.57;102332.75;5074625;28;20054;-70
2022/07/11 04:16:36;;;;;;;10.57;8.70;;;;;;;15.14;98.98;102334.44;5074901;28;20380;-70
2022/07/11 04:19:01;;;;;;;13.43;10.23;;;;;;;15.14;99.36;102337.97;5074666;28;20024;-70
2022/07/11 04:21:26;;;;;;;15.75;9.52;;;;;;;15.20;99.52;102329.06;5074261;28;20033;-70
2022/07/11 04:23:51;;;;;;;16.05;9.38;;;;;;;15.20;98.93;102332.59;5074137;28;20031;-70
2022/07/11 04:26:17;;;;;;;16.88;9.63;;;;;;;15.25;98.67;102329.84;5075156;28;20025;-70
2022/07/11 04:28:42;;;;;;;13.90;9.23;;;;;;;15.24;98.92;102325.50;5073980;28;20438;-70
2022/07/11 04:31:07;;;;;;;15.98;9.35;;;;;;;15.27;98.86;102332.44;5074715;28;20461;-70
2022/07/11 04:33:33;;;;;;;13.05;8.80;;;;;;;15.30;98.67;102329.75;5074674;28;20107;-70
2022/07/11 04:35:58;;;;;;;11.57;8.82;;;;;;;15.36;98.48;102338.38;5073568;28;20452;-70
2022/07/11 04:38:23;;;;;;;11.68;8.55;;;;;;;15.39;98.20;102340.09;5074693;28;20029;-70
2022/07/11 04:40:50;;;;;;;12.27;8.63;;;;;;;15.44;98.41;102336.50;5062166;28;20033;-70
2022/07/11 04:43:15;;;;;;;12.70;8.32;;;;;;;15.51;97.58;102339.00;5072108;28;20024;-70
2022/07/11 04:45:41;;;;;;;12.80;7.93;;;;;;;15.54;97.38;102344.19;5074463;28;20395;-70
2022/07/11 04:48:06;;;;;;;12.88;7.70;;;;;;;15.55;97.76;102343.28;5074193;28;20078;-71
2022/07/11 04:50:31;;;;;;;10.95;7.47;;;;;;;15.56;97.51;102343.25;5073753;28;20253;-71
2022/07/11 04:52:57;;;;;;;13.20;7.97;;;;;;;15.58;97.19;102346.72;5073766;28;20464;-70
2022/07/11 04:55:22;;;;;;;11.68;7.38;;;;;;;15.60;97.89;102347.56;5074568;28;20376;-70
2022/07/11 04:57:48;;;;;;;11.55;6.43;;;;;;;15.65;97.36;102350.94;5072836;28;20107;-71
2022/07/11 05:00:14;;;;;;;18.73;8.07;;;;;;;15.66;97.47;102350.09;5074509;28;20020;-70
2022/07/11 05:02:39;;;;;;;11.48;7.80;;;;;;;15.68;97.02;102355.31;5074135;28;20358;-70
2022/07/11 05:05:05;;;;;;;10.88;7.25;;;;;;;15.72;97.17;102358.75;5073154;28;20024;-70
2022/07/11 05:07:31;;;;;;;18.75;8.00;;;;;;;15.74;96.83;102367.47;5074648;28;20030;-70
2022/07/11 05:09:57;;;;;;;11.10;7.40;;;;;;;15.78;96.72;102363.88;5072781;28;20032;-71
2022/07/11 05:12:22;;;;;;;11.95;7.38;;;;;;;15.78;96.56;102364.75;5074207;28;20489;-70
2022/07/11 05:14:48;;;;;;;14.00;7.43;;;;;;;15.83;96.34;102369.91;5073604;28;20108;-70
2022/07/11 05:17:13;;;;;;;14.77;8.00;;;;;;;15.80;95.82;102362.94;5073001;28;20557;-70
2022/07/11 05:19:39;;;;;;;12.95;7.85;;;;;;;15.86;96.10;102367.22;5073776;28;20108;-70
2022/07/11 05:22:04;;;;;;;10.05;7.30;;;;;;;15.91;95.71;102370.59;5073348;28;20042;-70
2022/07/11 05:24:29;;;;;;;11.73;7.50;;;;;;;15.87;95.54;102355.81;5073378;28;20381;-70
2022/07/11 05:26:55;;;;;;;10.73;7.10;;;;;;;15.89;95.87;102373.28;5073260;28;20012;-70
2022/07/11 05:29:20;;;;;;;14.57;7.70;;;;;;;15.95;95.19;102374.88;5073855;28;20031;-71
2022/07/11 05:31:50;;;;;;;11.23;7.82;;;;;;;16.00;95.49;102373.03;5072539;28;20108;-70
2022/07/11 05:34:15;;;;;;;9.30;7.38;;;;;;;16.03;94.95;102380.88;5073651;28;20032;-70
2022/07/11 05:36:43;;;;;;;13.25;7.60;;;;;;;16.06;94.59;102366.78;5073277;28;20032;-71
2022/07/11 05:39:08;;;;;;;12.75;7.88;;;;;;;16.13;95.45;102371.88;5072961;28;20066;-70
2022/07/11 05:41:34;;;;;;;14.40;7.65;;;;;;;16.09;94.45;102362.31;5059251;28;20036;-71
2022/07/11 05:43:59;;;;;;;16.75;7.45;;;;;;;16.15;94.98;102374.44;5073359;28;20025;-70
2022/07/11 05:46:24;;;;;;;10.63;7.35;;;;;;;16.23;94.75;102369.91;5072736;28;20368;-70
2022/07/11 05:48:50;;;;;;;12.70;7.63;;;;;;;16.29;95.03;102375.03;5072885;28;20475;-70
2022/07/11 05:51:16;;;;;;;13.13;7.53;;;;;;;16.37;94.60;102380.09;5073240;28;20020;-71
2022/07/11 05:53:41;;;;;;;9.85;6.95;;;;;;;16.43;94.00;102379.97;5072493;28;20031;-71
2022/07/11 05:56:07;;;;;;;14.00;8.30;;;;;;;16.42;93.37;102380.00;5073137;28;20020;-71
2022/07/11 05:58:32;;;;;;;9.38;7.38;;;;;;;16.45;93.91;102380.81;5072633;28;20115;-71
2022/07/11 06:00:58;;;;;;;11.38;8.27;;;;;;;16.47;93.07;102375.50;5072180;28;20431;-71
2022/07/11 06:03:24;;;;;;;10.98;7.47;;;;;;;16.56;93.46;102381.41;5072435;28;20059;-70
2022/07/11 06:05:49;;;;;;;13.75;7.28;;;;;;;16.60;92.19;102371.66;5072456;28;20061;-70
2022/07/11 06:10:59;;;;;;;12.00;8.15;;;;;;;16.67;92.62;102377.63;5073006;28;20102;-71
2022/07/11 06:13:24;;;;;;;11.10;7.03;;;;;;;16.70;92.47;102385.47;5072226;28;20020;-70
2022/07/11 06:15:49;;;;;;;9.57;7.35;;;;;;;16.73;92.99;102386.25;5072435;28;20020;-70
2022/07/11 06:18:15;;;;;;;9.70;7.40;;;;;;;16.72;93.18;102387.16;5072591;28;20468;-71
2022/07/11 06:20:40;;;;;;;11.35;8.43;;;;;;;16.69;92.88;102397.78;5071908;28;20064;-70
2022/07/11 06:23:06;;;;;;;12.95;8.82;;;;;;;16.65;92.46;102395.25;5072610;28;20426;-70
2022/07/11 06:25:31;;;;;;;11.43;7.45;;;;;;;16.59;92.93;102401.53;5072675;28;20032;-70
2022/07/11 06:27:57;;;;;;;12.75;8.05;;;;;;;16.57;92.84;102398.06;5071370;28;20354;-70
2022/07/11 06:30:22;;;;;;;10.30;7.30;;;;;;;16.56;93.30;102401.59;5072942;28;20025;-71
2022/07/11 06:32:47;;;;;;;11.32;7.35;;;;;;;16.58;93.50;102400.66;5071780;28;20063;-71
2022/07/11 06:35:13;;;;;;;10.48;7.55;;;;;;;16.58;93.29;102390.13;5071901;28;20104;-71
2022/07/11 06:37:38;;;;;;;9.73;7.65;;;;;;;16.58;93.69;102394.53;5072136;28;20032;-71
2022/07/11 06:40:09;;;;;;;9.57;6.90;;;;;;;16.63;93.50;102396.13;5066430;28;20461;-71
2022/07/11 06:42:35;;;;;;;14.07;9.13;;;;;;;16.59;93.14;102397.13;5064083;28;20020;-70
2022/07/11 06:45:00;;;;;;;12.70;9.00;;;;;;;16.62;92.54;102401.47;5071867;28;20013;-71
2022/07/11 06:47:26;;;;;;;10.82;8.18;;;;;;;16.66;93.56;102402.25;5072212;28;20025;-70
2022/07/11 06:49:51;;;;;;;11.35;8.35;;;;;;;16.71;93.18;102401.25;5067790;28;20384;-70
2022/07/11 06:52:16;;;;;;;13.13;8.25;;;;;;;16.76;92.82;102407.28;5053070;28;20025;-70
2022/07/11 06:54:42;;;;;;;10.95;8.00;;;;;;;16.72;91.96;102397.69;5066167;28;20043;-70
2022/07/11 06:57:08;;;;;;;9.90;7.40;;;;;;;16.81;91.74;102401.91;5071207;28;20028;-70
2022/07/11 06:59:33;;;;;;;10.15;7.15;;;;;;;16.88;90.78;102392.94;5071592;28;20074;-75
2022/07/11 07:01:58;;;;;;;11.30;7.18;;;;;;;17.06;90.55;102397.72;5060292;28;20020;-75
2022/07/11 07:04:24;;;;;;;9.30;6.53;;;;;;;17.14;89.12;102392.28;5061430;28;20120;-75
2022/07/11 07:06:49;;;;;;;8.20;5.13;;;;;;;17.20;89.12;102393.88;5057013;28;20055;-75
2022/07/11 07:09:14;;;;;;;7.22;5.53;;;;;;;17.27;87.74;102395.47;5061192;28;20025;-75
2022/07/11 07:11:40;;;;;;;7.55;5.78;;;;;;;17.34;87.73;102390.88;5071107;28;20021;-75
2022/07/11 07:14:05;;;;;;;8.32;5.55;;;;;;;17.42;87.96;102388.88;5070351;28;20468;-75
2022/07/11 07:16:30;;;;;;;9.57;5.93;;;;;;;17.49;88.93;102396.59;5069262;28;20032;-76
2022/07/11 07:18:55;;;;;;;8.95;6.13;;;;;;;17.51;85.94;102394.78;5071221;28;20074;-75
2022/07/11 07:21:21;;;;;;;10.70;6.88;;;;;;;17.50;86.62;102398.31;5071987;28;20095;-75
2022/07/11 07:23:46;;;;;;;7.80;5.82;;;;;;;17.51;87.01;102389.50;5070456;28;20469;-75
2022/07/11 07:26:11;;;;;;;8.23;5.97;;;;;;;17.58;86.53;102390.19;5071903;28;20104;-75
2022/07/11 07:28:38;;;;;;;7.95;6.28;;;;;;;17.65;86.26;102382.97;5071700;28;20035;-75
2022/07/11 07:31:04;;;;;;;8.65;6.00;;;;;;;17.67;85.19;102382.03;5070685;28;20543;-75
2022/07/11 07:33:29;;;;;;;9.65;5.50;;;;;;;17.69;87.04;102381.97;5060398;28;20473;-77
2022/07/11 07:35:55;;;;;;;9.73;5.82;;;;;;;17.75;86.38;102379.16;5068954;28;20027;-76
2022/07/11 07:38:20;;;;;;;6.57;5.50;;;;;;;17.77;86.14;102380.88;5069698;28;20046;-76
2022/07/11 07:40:45;;;;;;;9.40;6.45;;;;;;;17.82;85.47;102385.16;5065040;28;20024;-75
2022/07/11 07:43:10;;;;;;;11.05;7.10;;;;;;;17.78;84.42;102376.47;5071581;28;20461;-75
2022/07/11 07:45:36;;;;;;;7.15;5.63;;;;;;;17.95;84.01;102390.03;5070320;28;20031;-76
2022/07/11 07:48:01;;;;;;;7.95;6.22;;;;;;;18.15;83.52;102385.94;5071132;28;20036;-76
2022/07/11 07:50:27;;;;;;;6.53;5.63;;;;;;;18.33;82.58;102385.34;5071826;28;20518;-76
2022/07/11 07:52:52;;;;;;;9.10;6.03;;;;;;;18.53;82.53;102395.28;5070440;28;20387;-76
2022/07/11 07:55:18;;;;;;;11.15;5.45;;;;;;;18.73;79.85;102394.66;5071581;28;20020;-75
2022/07/11 07:57:43;;;;;;;8.65;5.55;;;;;;;18.81;78.52;102387.34;5070780;28;20028;-76
2022/07/11 08:02:53;;;;;;;7.10;5.30;;;;;;;19.06;77.38;102394.44;5071239;28;20113;-76
2022/07/11 08:05:19;;;;;;;7.70;5.50;;;;;;;19.05;78.01;102405.94;5071305;28;20456;-75
2022/07/11 08:07:44;;;;;;;6.25;5.10;;;;;;;19.13;78.81;102396.84;5070289;28;20024;-75
2022/07/11 08:10:10;;;;;;;6.65;5.85;;;;;;;19.32;77.08;102404.09;5071281;28;20498;-76
2022/07/11 08:12:36;;;;;;;7.85;5.40;;;;;;;19.49;77.03;102396.44;5070977;28;20396;-76
2022/07/11 08:15:01;;;;;;;7.72;5.75;;;;;;;19.73;75.34;102388.56;5070620;28;20021;-75
2022/07/11 08:17:26;;;;;;;5.88;5.18;;;;;;;19.82;74.12;102390.84;5065011;28;20047;-75
2022/07/11 08:19:52;;;;;;;7.05;5.32;;;;;;;19.82;74.18;102397.00;5063535;28;20435;-75
2022/07/11 08:22:17;;;;;;;8.13;5.78;;;;;;;19.79;74.83;102389.19;5070466;28;20052;-75
2022/07/11 08:24:43;;;;;;;7.97;5.22;;;;;;;19.69;74.70;102387.81;5071013;28;20040;-76
2022/07/11 08:27:08;;;;;;;6.68;5.05;;;;;;;19.56;73.71;102394.44;5071583;28;20031;-75
2022/07/11 08:29:34;;;;;;;6.03;4.60;;;;;;;19.52;75.44;102398.09;5074466;28;20024;-75
2022/07/11 08:31:59;;;;;;;6.18;4.90;;;;;;;19.28;75.45;102397.19;5068615;28;20023;-75
2022/07/11 08:34:25;;;;;;;5.00;3.95;;;;;;;19.14;76.31;102392.41;5070267;28;20029;-76
2022/07/11 08:36:51;;;;;;;9.25;5.80;;;;;;;19.08;76.62;102401.41;5065415;28;20123;-75
2022/07/11 08:39:16;;;;;;;7.85;6.43;;;;;;;19.03;76.73;102411.28;5074612;28;20094;-76
2022/07/11 08:41:44;;;;;;;9.38;5.85;;;;;;;19.02;77.48;102412.19;5059465;28;20071;-75
2022/07/11 08:44:11;;;;;;;10.45;6.72;;;;;;;19.09;75.75;102407.53;5074416;28;20086;-75
2022/07/11 08:46:40;;;;;;;9.77;6.82;;;;;;;19.13;76.88;102398.63;5074177;28;20025;-75
2022/07/11 08:49:05;;;;;;;8.90;6.55;;;;;;;19.13;76.42;102393.34;5073268;28;20025;-75
2022/07/11 08:51:31;;;;;;;9.40;6.35;;;;;;;19.31;77.27;102407.66;5072447;28;20081;-76
2022/07/11 08:53:57;;;;;;;10.55;6.38;;;;;;;19.39;77.03;102392.38;5059115;28;20041;-75
2022/07/11 08:56:24;;;;;;;7.93;6.32;;;;;;;19.51;76.87;102401.66;5066881;28;20037;-75
2022/07/11 08:58:50;;;;;;;8.95;6.43;;;;;;;19.70;75.41;102397.47;5071384;28;20056;-75
2022/07/11 09:01:19;;;;;;;13.68;7.47;;;;;;;19.85;74.02;102402.19;5074135;28;20020;-75
2022/07/11 09:03:44;;;;;;;10.60;7.13;;;;;;;20.03;73.40;102402.41;5066123;28;20077;-75
2022/07/11 09:06:11;;;;;;;10.55;7.00;;;;;;;20.09;72.67;102396.88;5064814;28;20104;-75
2022/07/11 09:08:37;;;;;;;11.27;7.13;;;;;;;20.23;74.03;102394.53;5073729;28;20052;-75
2022/07/11 09:11:03;;;;;;;12.18;7.50;;;;;;;20.38;72.97;102394.88;5072152;28;20043;-75
2022/07/11 09:13:30;;;;;;;14.23;8.10;;;;;;;20.49;72.93;102390.00;5074209;28;20017;-75
2022/07/11 09:16:02;;;;;;;10.80;7.75;;;;;;;20.65;72.06;102395.56;5072855;28;20116;-75
2022/07/11 09:18:36;;;;;;;11.82;8.75;;;;;;;20.82;72.33;102390.41;5073550;28;20033;-75
2022/07/11 09:26:41;;;;;;;11.55;8.30;;;;;;;20.89;69.57;102394.53;5071365;28;20434;-75
2022/07/11 09:29:09;;;;;;;10.65;9.00;;;;;;;20.95;67.42;102381.00;5069745;28;20024;-75
2022/07/11 09:31:37;;;;;;;14.10;8.43;;;;;;;21.13;68.71;102386.47;5071691;28;20020;-75
2022/07/11 09:34:03;;;;;;;10.27;7.57;;;;;;;21.55;67.41;102374.91;5069774;28;20040;-75
2022/07/11 09:36:40;;;;;;;11.02;8.18;;;;;;;21.88;67.23;102388.44;5064931;28;20056;-75
2022/07/11 09:39:07;;;;;;;10.52;8.13;;;;;;;22.04;64.75;102378.81;5070829;28;20025;-75
2022/07/11 09:41:34;;;;;;;10.57;7.93;;;;;;;22.05;64.74;102383.19;5055546;28;20063;-75
2022/07/11 09:44:09;;;;;;;11.25;8.02;;;;;;;22.09;66.99;102378.59;5073341;28;20059;-75
2022/07/11 09:46:36;;;;;;;12.85;8.75;;;;;;;22.20;64.68;102368.31;5072222;28;20020;-75
2022/07/11 09:49:01;;;;;;;9.43;7.40;;;;;;;22.52;64.16;102381.84;5071377;28;20094;-75
2022/07/11 09:51:26;;;;;;;10.63;8.45;;;;;;;22.64;62.60;102376.78;5071814;28;20435;-76
2022/07/11 09:53:58;;;;;;;10.25;7.63;;;;;;;22.39;62.79;102381.59;5068792;28;20570;-75
2022/07/11 09:56:34;;;;;;;9.10;7.25;;;;;;;22.06;64.16;102382.25;5066391;28;20107;-76
2022/07/11 09:59:04;;;;;;;12.63;8.00;;;;;;;21.71;66.18;102378.56;5072002;28;20476;-75
2022/07/11 10:01:30;;;;;;;9.75;7.55;;;;;;;21.61;66.45;102378.13;5073255;28;20021;-75
2022/07/11 10:03:56;;;;;;;11.00;7.45;;;;;;;21.40;67.30;102385.28;5066671;28;20033;-76
2022/07/11 10:06:22;;;;;;;9.77;7.00;;;;;;;21.23;68.64;102388.66;5064729;28;20081;-75
2022/07/11 10:08:50;;;;;;;9.60;7.72;;;;;;;21.12;69.90;102384.72;5059991;28;20036;-75
2022/07/11 10:11:15;;;;;;;11.10;7.70;;;;;;;20.97;69.13;102388.91;5071996;28;20023;-75
2022/07/11 10:13:41;;;;;;;12.02;7.85;;;;;;;20.78;69.49;102386.19;5068463;28;20029;-75
2022/07/11 10:16:38;;;;;;;10.57;8.27;;;;;;;20.76;70.18;102385.38;5072471;28;20074;-75
2022/07/11 10:19:29;;;;;;;11.98;8.10;;;;;;;20.68;71.48;102390.13;5072373;28;20032;-75
2022/07/11 10:22:19;;;;;;;14.38;8.20;;;;;;;20.69;71.47;102382.09;5066393;28;20402;-75
2022/07/11 10:24:54;;;;;;;11.93;8.68;;;;;;;20.67;71.35;102378.69;5067209;28;20024;-75
2022/07/11 10:27:27;;;;;;;11.68;8.07;;;;;;;20.86;71.36;102388.50;5070939;28;20086;-75
2022/07/11 10:29:53;;;;;;;12.52;7.70;;;;;;;21.31;70.27;102390.09;5059227;28;20090;-75
2022/07/11 10:32:19;;;;;;;10.57;8.00;;;;;;;21.78;67.63;102395.06;5068420;28;20021;-75
2022/07/11 10:34:47;;;;;;;10.70;7.72;;;;;;;22.09;66.72;102394.53;5071524;28;20477;-75
2022/07/11 10:37:13;;;;;;;10.90;8.35;;;;;;;22.25;66.12;102394.69;5072396;28;20032;-75
2022/07/11 10:39:46;;;;;;;14.13;10.02;;;;;;;22.28;65.29;102399.84;5070070;28;20475;-75
2022/07/11 10:42:19;;;;;;;10.43;7.82;;;;;;;22.21;64.58;102396.63;5061086;28;20457;-76
2022/07/11 10:44:49;;;;;;;10.27;7.90;;;;;;;21.93;65.19;102395.22;5071662;28;20379;-76
2022/07/11 10:47:45;;;;;;;11.38;8.15;;;;;;;21.91;66.25;102396.25;5072561;28;20035;-75
2022/07/11 10:50:31;;;;;;;11.70;6.82;;;;;;;22.11;66.48;102393.53;5072098;28;20020;-75
2022/07/11 10:52:57;;;;;;;11.25;7.13;;;;;;;22.49;65.26;102393.47;5071892;28;20452;-76
2022/07/11 10:55:34;;;;;;;9.70;7.40;;;;;;;22.74;65.25;102393.13;5073762;28;20116;-76
2022/07/11 10:58:11;;;;;;;11.43;7.68;;;;;;;22.87;63.15;102396.03;5071838;28;20048;-76
2022/07/11 11:00:36;;;;;;;11.07;8.23;;;;;;;22.95;61.71;102396.53;5071975;28;20108;-75
2022/07/11 11:03:10;;;;;;;11.85;8.10;;;;;;;22.88;62.61;102389.78;5071238;28;20095;-76
2022/07/11 11:05:43;;;;;;;9.73;7.25;;;;;;;22.86;64.41;102389.88;5071832;28;20063;-76
2022/07/11 11:08:30;;;;;;;10.13;8.18;;;;;;;22.83;63.55;102384.69;5063353;28;20024;-76
2022/07/11 11:10:55;;;;;;;10.60;7.55;;;;;;;22.51;64.24;102394.28;5058595;28;20036;-75
2022/07/11 11:13:20;;;;;;;10.65;7.28;;;;;;;22.35;65.06;102394.16;5083959;28;20074;-76
2022/07/11 11:15:56;;;;;;;9.30;7.93;;;;;;;22.14;65.27;102398.69;5070558;28;20025;-76
2022/07/11 11:18:22;;;;;;;11.32;7.68;;;;;;;21.95;67.48;102396.03;5071765;28;20036;-75
2022/07/11 11:21:07;;;;;;;7.40;6.13;;;;;;;21.83;65.57;102403.69;5071462;28;20026;-75
2022/07/11 11:23:34;;;;;;;10.73;6.78;;;;;;;21.56;65.61;102405.81;5071331;28;20472;-76
2022/07/11 11:26:16;;;;;;;7.85;6.20;;;;;;;21.56;66.75;102406.69;5071490;28;20438;-75
2022/07/11 11:29:02;;;;;;;8.02;6.47;;;;;;;21.60;67.52;102399.44;5071383;28;20021;-75
2022/07/11 11:31:29;;;;;;;7.70;5.20;;;;;;;21.61;67.86;102396.72;5071251;28;20032;-76
2022/07/11 11:33:56;;;;;;;6.25;5.30;;;;;;;21.67;67.83;102404.41;5071419;28;20067;-75